sensor_id;sensor_type;location;lat;lon;timestamp;pressure;altitude;pressure_sealevel;temperature;humidity
13867;BME280;7003;46.982;15.248;2023-02-03T00:02:08;98022.44;;;0.06;100.00
13867;BME280;7003;46.982;15.248;2023-02-03T00:04:35;98009.13;;;0.08;100.00
13867;BME280;7003;46.982;15.248;2023-02-03T00:07:02;98006.06;;;-0.18;100.00
13867;BME280;7003;46.982;15.248;2023-02-03T00:09:37;98012.00;;;0.23;100.00
13867;BME280;7003;46.982;15.248;2023-02-03T00:12:06;98001.50;;;-0.11;100.00
13867;BME280;7003;46.982;15.248;2023-02-03T00:14:33;98010.03;;;-0.15;100.00
13867;BME280;7003;46.982;15.248;2023-02-03T00:17:04;98002.50;;;-0.12;100.00
13867;BME280;7003;46.982;15.248;2023-02-03T00:19:31;98009.22;;;-0.32;100.00
13867;BME280;7003;46.982;15.248;2023-02-03T00:21:58;98000.34;;;-0.31;100.00
13867;BME280;7003;46.982;15.248;2023-02-03T00:24:26;98002.50;;;-0.12;100.00
13867;BME280;7003;46.982;15.248;2023-02-03T00:26:53;98004.03;;;-0.16;100.00
13867;BME280;7003;46.982;15.248;2023-02-03T00:29:20;97996.41;;;-0.17;100.00
13867;BME280;7003;46.982;15.248;2023-02-03T00:31:50;98004.34;;;-0.41;100.00
13867;BME280;7003;46.982;15.248;2023-02-03T00:34:21;98016.50;;;-0.34;100.00
13867;BME280;7003;46.982;15.248;2023-02-03T00:36:49;98014.25;;;-0.43;100.00
13867;BME280;7003;46.982;15.248;2023-02-03T00:39:16;98018.53;;;-0.36;100.00
13867;BME280;7003;46.982;15.248;2023-02-03T00:41:43;98021.50;;;-0.45;100.00
13867;BME280;7003;46.982;15.248;2023-02-03T00:44:10;98014.69;;;-0.46;100.00
13867;BME280;7003;46.982;15.248;2023-02-03T00:46:37;98016.50;;;-0.46;100.00
13867;BME280;7003;46.982;15.248;2023-02-03T00:49:04;98020.13;;;-0.35;100.00
13867;BME280;7003;46.982;15.248;2023-02-03T00:51:36;98014.78;;;-0.12;100.00
13867;BME280;7003;46.982;15.248;2023-02-03T00:54:03;98010.59;;;-0.13;100.00
13867;BME280;7003;46.982;15.248;2023-02-03T00:56:30;98017.97;;;-0.39;100.00
13867;BME280;7003;46.982;15.248;2023-02-03T00:58:57;98014.25;;;-0.43;100.00
13867;BME280;7003;46.982;15.248;2023-02-03T01:01:24;98015.97;;;-0.48;100.00
13867;BME280;7003;46.982;15.248;2023-02-03T01:03:54;98017.00;;;-0.49;100.00
13867;BME280;7003;46.982;15.248;2023-02-03T01:06:22;98022.44;;;-0.51;100.00
13867;BME280;7003;46.982;15.248;2023-02-03T01:08:53;98009.34;;;-0.39;100.00
13867;BME280;7003;46.982;15.248;2023-02-03T01:11:23;98009.47;;;-0.46;100.00
13867;BME280;7003;46.982;15.248;2023-02-03T01:13:53;98004.78;;;-0.32;100.00
13867;BME280;7003;46.982;15.248;2023-02-03T01:16:22;98006.31;;;-0.48;100.00
13867;BME280;7003;46.982;15.248;2023-02-03T01:18:49;97996.50;;;-0.41;100.00
13867;BME280;7003;46.982;15.248;2023-02-03T01:21:21;97997.19;;;-0.45;100.00
13867;BME280;7003;46.982;15.248;2023-02-03T01:23:53;97991.59;;;-0.37;100.00
13867;BME280;7003;46.982;15.248;2023-02-03T01:26:23;97994.50;;;-0.50;100.00
13867;BME280;7003;46.982;15.248;2023-02-03T01:28:53;97983.09;;;-0.44;100.00
13867;BME280;7003;46.982;15.248;2023-02-03T01:31:26;97982.72;;;-0.36;100.00
13867;BME280;7003;46.982;15.248;2023-02-03T01:33:54;97989.88;;;-0.31;100.00
13867;BME280;7003;46.982;15.248;2023-02-03T01:36:25;97976.03;;;-0.32;100.00
13867;BME280;7003;46.982;15.248;2023-02-03T01:38:54;97970.09;;;-0.27;100.00
13867;BME280;7003;46.982;15.248;2023-02-03T01:41:23;97971.66;;;-0.26;100.00
13867;BME280;7003;46.982;15.248;2023-02-03T01:43:52;97987.50;;;-0.33;100.00
13867;BME280;7003;46.982;15.248;2023-02-03T01:46:25;97984.19;;;-0.28;100.00
13867;BME280;7003;46.982;15.248;2023-02-03T01:49:00;97973.88;;;-0.35;100.00
13867;BME280;7003;46.982;15.248;2023-02-03T01:51:30;97976.94;;;-0.38;100.00
13867;BME280;7003;46.982;15.248;2023-02-03T01:54:01;97961.81;;;-0.36;100.00
13867;BME280;7003;46.982;15.248;2023-02-03T01:56:33;97961.91;;;-0.31;100.00
13867;BME280;7003;46.982;15.248;2023-02-03T01:59:04;97966.38;;;-0.31;100.00
13867;BME280;7003;46.982;15.248;2023-02-03T02:01:33;97958.97;;;-0.34;100.00
13867;BME280;7003;46.982;15.248;2023-02-03T02:04:03;97960.41;;;-0.27;100.00
13867;BME280;7003;46.982;15.248;2023-02-03T02:06:34;97968.59;;;-0.23;100.00
13867;BME280;7003;46.982;15.248;2023-02-03T02:09:03;97963.25;;;-0.28;100.00
13867;BME280;7003;46.982;15.248;2023-02-03T02:11:31;97947.00;;;-0.30;100.00
13867;BME280;7003;46.982;15.248;2023-02-03T02:14:01;97954.56;;;-0.17;100.00
13867;BME280;7003;46.982;15.248;2023-02-03T02:16:38;97951.06;;;-0.40;100.00
13867;BME280;7003;46.982;15.248;2023-02-03T02:19:31;97941.78;;;-0.30;100.00
13867;BME280;7003;46.982;15.248;2023-02-03T02:22:08;97942.66;;;-0.42;100.00
13867;BME280;7003;46.982;15.248;2023-02-03T02:25:09;97952.53;;;-0.44;100.00
13867;BME280;7003;46.982;15.248;2023-02-03T02:33:55;97948.97;;;-0.38;100.00
13867;BME280;7003;46.982;15.248;2023-02-03T02:36:31;97945.81;;;-0.40;100.00
13867;BME280;7003;46.982;15.248;2023-02-03T02:39:06;97944.00;;;-0.39;100.00
13867;BME280;7003;46.982;15.248;2023-02-03T02:41:39;97948.97;;;-0.38;100.00
13867;BME280;7003;46.982;15.248;2023-02-03T02:44:15;97960.38;;;-0.44;100.00
13867;BME280;7003;46.982;15.248;2023-02-03T02:46:46;97948.47;;;-0.51;100.00
13867;BME280;7003;46.982;15.248;2023-02-03T02:49:21;97949.19;;;-0.56;100.00
13867;BME280;7003;46.982;15.248;2023-02-03T02:51:54;97942.28;;;-0.62;100.00
13867;BME280;7003;46.982;15.248;2023-02-03T02:54:24;97942.47;;;-0.52;100.00
13867;BME280;7003;46.982;15.248;2023-02-03T02:56:59;97938.81;;;-0.51;100.00
13867;BME280;7003;46.982;15.248;2023-02-03T02:59:27;97931.16;;;-0.41;100.00
13867;BME280;7003;46.982;15.248;2023-02-03T03:01:54;97940.97;;;-0.48;100.00
13867;BME280;7003;46.982;15.248;2023-02-03T03:04:27;97947.31;;;-0.72;100.00
13867;BME280;7003;46.982;15.248;2023-02-03T03:06:59;97935.19;;;-0.78;100.00
13867;BME280;7003;46.982;15.248;2023-02-03T03:09:31;97933.38;;;-0.77;100.00
13867;BME280;7003;46.982;15.248;2023-02-03T03:12:05;97939.00;;;-0.69;100.00
13867;BME280;7003;46.982;15.248;2023-02-03T03:14:36;97937.19;;;-0.68;100.00
13867;BME280;7003;46.982;15.248;2023-02-03T03:17:11;97937.44;;;-0.70;100.00
13867;BME280;7003;46.982;15.248;2023-02-03T03:19:48;97940.81;;;-0.69;100.00
13867;BME280;7003;46.982;15.248;2023-02-03T03:22:17;97936.00;;;-0.77;100.00
13867;BME280;7003;46.982;15.248;2023-02-03T03:24:49;97934.50;;;-0.73;100.00
13867;BME280;7003;46.982;15.248;2023-02-03T03:27:21;97941.44;;;-0.79;100.00
13867;BME280;7003;46.982;15.248;2023-02-03T03:29:54;97930.34;;;-0.86;100.00
13867;BME280;7003;46.982;15.248;2023-02-03T03:32:23;97928.53;;;-0.86;100.00
13867;BME280;7003;46.982;15.248;2023-02-03T03:34:55;97937.03;;;-0.90;100.00
13867;BME280;7003;46.982;15.248;2023-02-03T03:37:27;97938.50;;;-0.83;100.00
13867;BME280;7003;46.982;15.248;2023-02-03T03:39:59;97947.56;;;-0.85;100.00
13867;BME280;7003;46.982;15.248;2023-02-03T03:42:32;97949.66;;;-0.87;100.00
13867;BME280;7003;46.982;15.248;2023-02-03T03:45:06;97950.09;;;-0.90;100.00
13867;BME280;7003;46.982;15.248;2023-02-03T03:47:40;97943.50;;;-0.93;100.00
13867;BME280;7003;46.982;15.248;2023-02-03T03:50:16;97943.19;;;-0.96;100.00
13867;BME280;7003;46.982;15.248;2023-02-03T03:52:45;97952.94;;;-0.92;100.00
13867;BME280;7003;46.982;15.248;2023-02-03T03:55:18;97948.50;;;-0.91;100.00
13867;BME280;7003;46.982;15.248;2023-02-03T03:57:51;97946.91;;;-0.92;100.00
13867;BME280;7003;46.982;15.248;2023-02-03T04:00:22;97946.75;;;-1.02;100.00
13867;BME280;7003;46.982;15.248;2023-02-03T04:02:53;97954.09;;;-0.99;100.00
13867;BME280;7003;46.982;15.248;2023-02-03T04:05:27;97951.47;;;-0.99;100.00
13867;BME280;7003;46.982;15.248;2023-02-03T04:07:54;97947.56;;;-0.85;100.00
13867;BME280;7003;46.982;15.248;2023-02-03T04:10:30;97945.81;;;-0.96;100.00
13867;BME280;7003;46.982;15.248;2023-02-03T04:13:08;97947.06;;;-0.99;100.00
13867;BME280;7003;46.982;15.248;2023-02-03T04:15:41;97945.16;;;-1.03;100.00
13867;BME280;7003;46.982;15.248;2023-02-03T04:18:12;97950.38;;;-1.03;100.00
13867;BME280;7003;46.982;15.248;2023-02-03T04:20:46;97939.72;;;-0.73;100.00
13867;BME280;7003;46.982;15.248;2023-02-03T04:23:15;97929.00;;;-1.00;100.00
13867;BME280;7003;46.982;15.248;2023-02-03T04:25:45;97924.84;;;-0.73;100.00
13867;BME280;7003;46.982;15.248;2023-02-03T04:28:14;97929.69;;;-0.93;100.00
13867;BME280;7003;46.982;15.248;2023-02-03T04:30:45;97933.03;;;-0.81;100.00
13867;BME280;7003;46.982;15.248;2023-02-03T04:33:15;97929.56;;;-0.98;100.00
13867;BME280;7003;46.982;15.248;2023-02-03T04:35:43;97934.28;;;-0.84;100.00
13867;BME280;7003;46.982;15.248;2023-02-03T04:38:14;97932.53;;;-1.06;100.00
13867;BME280;7003;46.982;15.248;2023-02-03T04:40:41;97930.28;;;-1.03;100.00
13867;BME280;7003;46.982;15.248;2023-02-03T04:43:12;97932.41;;;-1.00;100.00
13867;BME280;7003;46.982;15.248;2023-02-03T04:45:41;97924.91;;;-0.96;100.00
13867;BME280;7003;46.982;15.248;2023-02-03T04:48:13;97921.94;;;-0.88;100.00
13867;BME280;7003;46.982;15.248;2023-02-03T04:50:42;97928.13;;;-1.06;100.00
13867;BME280;7003;46.982;15.248;2023-02-03T04:53:10;97933.56;;;-1.07;100.00
13867;BME280;7003;46.982;15.248;2023-02-03T04:55:38;97932.88;;;-1.03;100.00
13867;BME280;7003;46.982;15.248;2023-02-03T04:58:07;97931.16;;;-0.97;100.00
13867;BME280;7003;46.982;15.248;2023-02-03T05:00:35;97930.34;;;-0.86;100.00
13867;BME280;7003;46.982;15.248;2023-02-03T05:03:11;97931.72;;;-0.95;100.00
13867;BME280;7003;46.982;15.248;2023-02-03T05:05:41;97937.81;;;-0.78;100.00
13867;BME280;7003;46.982;15.248;2023-02-03T05:08:08;97927.97;;;-0.88;100.00
13867;BME280;7003;46.982;15.248;2023-02-03T05:10:36;97935.00;;;-0.88;100.00
13867;BME280;7003;46.982;15.248;2023-02-03T05:13:07;97935.78;;;-0.88;100.00
13867;BME280;7003;46.982;15.248;2023-02-03T05:15:36;97934.94;;;-0.77;100.00
13867;BME280;7003;46.982;15.248;2023-02-03T05:18:06;97919.75;;;-0.80;100.00
13867;BME280;7003;46.982;15.248;2023-02-03T05:20:33;97915.50;;;-0.69;100.00
13867;BME280;7003;46.982;15.248;2023-02-03T05:23:01;97914.31;;;-0.78;100.00
13867;BME280;7003;46.982;15.248;2023-02-03T05:25:28;97912.22;;;-0.76;100.00
13867;BME280;7003;46.982;15.248;2023-02-03T05:27:58;97909.47;;;-0.69;100.00
13867;BME280;7003;46.982;15.248;2023-02-03T05:30:29;97913.38;;;-0.72;100.00
13867;BME280;7003;46.982;15.248;2023-02-03T05:32:59;97921.19;;;-0.72;100.00
13867;BME280;7003;46.982;15.248;2023-02-03T05:35:29;97921.50;;;-0.68;100.00
13867;BME280;7003;46.982;15.248;2023-02-03T05:37:57;97917.38;;;-0.81;100.00
13867;BME280;7003;46.982;15.248;2023-02-03T05:40:25;97925.50;;;-0.66;100.00
13867;BME280;7003;46.982;15.248;2023-02-03T05:43:10;97926.44;;;-0.72;100.00
13867;BME280;7003;46.982;15.248;2023-02-03T05:45:41;97922.44;;;-0.74;100.00
13867;BME280;7003;46.982;15.248;2023-02-03T05:48:08;97926.19;;;-0.70;100.00
13867;BME280;7003;46.982;15.248;2023-02-03T05:50:38;97923.25;;;-0.74;100.00
13867;BME280;7003;46.982;15.248;2023-02-03T05:53:08;97917.09;;;-0.68;100.00
13867;BME280;7003;46.982;15.248;2023-02-03T05:55:36;97908.78;;;-0.65;100.00
13867;BME280;7003;46.982;15.248;2023-02-03T05:58:05;97915.59;;;-0.64;100.00
13867;BME280;7003;46.982;15.248;2023-02-03T06:00:35;97924.84;;;-0.73;100.00
13867;BME280;7003;46.982;15.248;2023-02-03T06:03:06;97915.97;;;-0.72;100.00
13867;BME280;7003;46.982;15.248;2023-02-03T06:05:34;97921.44;;;-0.73;100.00
13867;BME280;7003;46.982;15.248;2023-02-03T06:08:08;97924.63;;;-0.83;100.00
13867;BME280;7003;46.982;15.248;2023-02-03T06:10:37;97917.38;;;-0.81;100.00
13867;BME280;7003;46.982;15.248;2023-02-03T06:13:09;97898.63;;;-0.78;100.00
13867;BME280;7003;46.982;15.248;2023-02-03T06:15:37;97902.56;;;-0.75;100.00
13867;BME280;7003;46.982;15.248;2023-02-03T06:18:08;97889.22;;;-0.79;100.00
13867;BME280;7003;46.982;15.248;2023-02-03T06:20:38;97885.66;;;-0.73;100.00
13867;BME280;7003;46.982;15.248;2023-02-03T06:23:09;97899.38;;;-0.66;100.00
13867;BME280;7003;46.982;15.248;2023-02-03T06:25:38;97888.34;;;-0.68;100.00
13867;BME280;7003;46.982;15.248;2023-02-03T06:28:06;97896.75;;;-0.66;100.00
13867;BME280;7003;46.982;15.248;2023-02-03T06:30:35;97887.63;;;-0.80;100.00
13867;BME280;7003;46.982;15.248;2023-02-03T06:33:04;97873.03;;;-0.76;100.00
13867;BME280;7003;46.982;15.248;2023-02-03T06:35:36;97876.72;;;-0.60;100.00
13867;BME280;7003;46.982;15.248;2023-02-03T06:38:05;97875.28;;;-0.68;100.00
13867;BME280;7003;46.982;15.248;2023-02-03T06:40:34;97870.47;;;-0.59;100.00
13867;BME280;7003;46.982;15.248;2023-02-03T06:43:06;97879.56;;;-0.62;100.00
13867;BME280;7003;46.982;15.248;2023-02-03T06:45:35;97869.59;;;-0.65;100.00
13867;BME280;7003;46.982;15.248;2023-02-03T06:48:06;97850.81;;;-0.62;100.00
13867;BME280;7003;46.982;15.248;2023-02-03T06:50:36;97855.97;;;-0.67;100.00
13867;BME280;7003;46.982;15.248;2023-02-03T06:53:06;97861.44;;;-0.52;100.00
13867;BME280;7003;46.982;15.248;2023-02-03T06:55:35;97864.78;;;-0.56;100.00
13867;BME280;7003;46.982;15.248;2023-02-03T06:58:05;97869.28;;;-0.52;100.00
13867;BME280;7003;46.982;15.248;2023-02-03T07:00:36;97864.06;;;-0.52;100.00
13867;BME280;7003;46.982;15.248;2023-02-03T07:03:05;97872.31;;;-0.43;100.00
13867;BME280;7003;46.982;15.248;2023-02-03T07:05:37;97862.19;;;-0.40;100.00
13867;BME280;7003;46.982;15.248;2023-02-03T07:08:07;97861.00;;;-0.32;100.00
13867;BME280;7003;46.982;15.248;2023-02-03T07:10:37;97863.06;;;-0.34;100.00
13867;BME280;7003;46.982;15.248;2023-02-03T07:13:08;97867.88;;;-0.26;100.00
13867;BME280;7003;46.982;15.248;2023-02-03T07:15:42;97874.31;;;-0.17;100.00
13867;BME280;7003;46.982;15.248;2023-02-03T07:18:13;97861.16;;;-0.22;100.00
13867;BME280;7003;46.982;15.248;2023-02-03T07:20:46;97862.66;;;-0.09;100.00
13867;BME280;7003;46.982;15.248;2023-02-03T07:23:15;97851.88;;;0.04;100.00
13867;BME280;7003;46.982;15.248;2023-02-03T07:25:45;97842.84;;;-0.05;100.00
13867;BME280;7003;46.982;15.248;2023-02-03T07:28:14;97849.81;;;0.06;100.00
13867;BME280;7003;46.982;15.248;2023-02-03T07:30:49;97846.00;;;-0.03;100.00
13867;BME280;7003;46.982;15.248;2023-02-03T07:33:19;97840.31;;;0.00;100.00
13867;BME280;7003;46.982;15.248;2023-02-03T07:35:53;97833.34;;;-0.11;100.00
13867;BME280;7003;46.982;15.248;2023-02-03T07:38:23;97845.66;;;0.10;100.00
13867;BME280;7003;46.982;15.248;2023-02-03T07:40:54;97835.53;;;0.14;100.00
13867;BME280;7003;46.982;15.248;2023-02-03T07:43:24;97828.78;;;0.39;100.00
13867;BME280;7003;46.982;15.248;2023-02-03T07:45:57;97826.00;;;0.68;100.00
13867;BME280;7003;46.982;15.248;2023-02-03T07:48:27;97825.44;;;0.66;100.00
13867;BME280;7003;46.982;15.248;2023-02-03T07:50:57;97799.94;;;0.56;100.00
13867;BME280;7003;46.982;15.248;2023-02-03T07:53:28;97806.72;;;0.79;100.00
13867;BME280;7003;46.982;15.248;2023-02-03T07:55:59;97798.16;;;1.10;100.00
13867;BME280;7003;46.982;15.248;2023-02-03T07:58:28;97784.47;;;1.35;100.00
13867;BME280;7003;46.982;15.248;2023-02-03T08:00:59;97789.38;;;1.59;100.00
13867;BME280;7003;46.982;15.248;2023-02-03T08:03:29;97788.13;;;1.66;100.00
13867;BME280;7003;46.982;15.248;2023-02-03T08:06:02;97794.75;;;1.79;100.00
13867;BME280;7003;46.982;15.248;2023-02-03T08:08:30;97809.88;;;2.04;100.00
13867;BME280;7003;46.982;15.248;2023-02-03T08:10:59;97825.69;;;2.14;100.00
13867;BME280;7003;46.982;15.248;2023-02-03T08:13:27;97824.72;;;1.88;100.00
13867;BME280;7003;46.982;15.248;2023-02-03T08:15:55;97825.75;;;2.24;100.00
13867;BME280;7003;46.982;15.248;2023-02-03T08:18:23;97828.16;;;2.36;100.00
13867;BME280;7003;46.982;15.248;2023-02-03T08:20:51;97829.47;;;1.91;100.00
13867;BME280;7003;46.982;15.248;2023-02-03T08:23:20;97831.59;;;1.94;100.00
13867;BME280;7003;46.982;15.248;2023-02-03T08:25:52;97837.69;;;2.47;100.00
13867;BME280;7003;46.982;15.248;2023-02-03T08:28:20;97825.72;;;2.81;100.00
13867;BME280;7003;46.982;15.248;2023-02-03T08:30:50;97826.38;;;3.29;100.00
13867;BME280;7003;46.982;15.248;2023-02-03T08:33:22;97830.88;;;3.54;100.00
13867;BME280;7003;46.982;15.248;2023-02-03T08:35:50;97831.31;;;3.00;100.00
13867;BME280;7003;46.982;15.248;2023-02-03T08:38:18;97837.44;;;3.51;100.00
13867;BME280;7003;46.982;15.248;2023-02-03T08:40:48;97819.28;;;3.75;100.00
13867;BME280;7003;46.982;15.248;2023-02-03T08:43:16;97819.03;;;3.86;100.00
13867;BME280;7003;46.982;15.248;2023-02-03T08:45:48;97820.81;;;4.11;100.00
13867;BME280;7003;46.982;15.248;2023-02-03T08:48:16;97843.13;;;4.44;100.00
13867;BME280;7003;46.982;15.248;2023-02-03T08:50:44;97833.63;;;4.43;100.00
13867;BME280;7003;46.982;15.248;2023-02-03T08:53:19;97826.56;;;4.39;100.00
13867;BME280;7003;46.982;15.248;2023-02-03T08:55:50;97814.16;;;4.34;100.00
13867;BME280;7003;46.982;15.248;2023-02-03T08:58:18;97810.16;;;4.52;100.00
13867;BME280;7003;46.982;15.248;2023-02-03T09:00:50;97823.88;;;4.54;100.00
13867;BME280;7003;46.982;15.248;2023-02-03T09:03:21;97821.06;;;4.89;100.00
13867;BME280;7003;46.982;15.248;2023-02-03T09:05:53;97812.34;;;5.38;100.00
13867;BME280;7003;46.982;15.248;2023-02-03T09:08:22;97802.66;;;5.62;100.00
13867;BME280;7003;46.982;15.248;2023-02-03T09:10:52;97797.34;;;5.67;100.00
13867;BME280;7003;46.982;15.248;2023-02-03T09:13:20;97789.50;;;5.91;100.00
13867;BME280;7003;46.982;15.248;2023-02-03T09:15:49;97781.38;;;6.11;100.00
13867;BME280;7003;46.982;15.248;2023-02-03T09:18:17;97773.78;;;6.52;100.00
13867;BME280;7003;46.982;15.248;2023-02-03T09:20:48;97777.31;;;6.85;100.00
13867;BME280;7003;46.982;15.248;2023-02-03T09:23:16;97776.84;;;7.02;100.00
13867;BME280;7003;46.982;15.248;2023-02-03T09:25:44;97766.59;;;7.33;100.00
13867;BME280;7003;46.982;15.248;2023-02-03T09:28:13;97764.16;;;7.69;100.00
13867;BME280;7003;46.982;15.248;2023-02-03T09:30:44;97765.19;;;8.00;100.00
13867;BME280;7003;46.982;15.248;2023-02-03T09:33:12;97776.97;;;7.94;100.00
13867;BME280;7003;46.982;15.248;2023-02-03T09:35:40;97785.25;;;8.20;100.00
13867;BME280;7003;46.982;15.248;2023-02-03T09:38:08;97782.22;;;8.40;100.00
13867;BME280;7003;46.982;15.248;2023-02-03T09:40:38;97777.59;;;8.46;100.00
13867;BME280;7003;46.982;15.248;2023-02-03T09:43:17;97772.09;;;8.56;100.00
13867;BME280;7003;46.982;15.248;2023-02-03T09:45:49;97768.56;;;8.47;100.00
13867;BME280;7003;46.982;15.248;2023-02-03T09:48:20;97758.66;;;8.66;100.00
13867;BME280;7003;46.982;15.248;2023-02-03T09:50:52;97761.28;;;8.66;100.00
13867;BME280;7003;46.982;15.248;2023-02-03T09:53:25;97760.91;;;8.59;100.00
13867;BME280;7003;46.982;15.248;2023-02-03T09:55:56;97752.66;;;8.47;100.00
13867;BME280;7003;46.982;15.248;2023-02-03T09:58:28;97755.00;;;8.62;100.00
13867;BME280;7003;46.982;15.248;2023-02-03T10:01:01;97751.06;;;8.73;100.00
13867;BME280;7003;46.982;15.248;2023-02-03T10:03:35;97748.50;;;8.68;100.00
13867;BME280;7003;46.982;15.248;2023-02-03T10:06:12;97746.66;;;9.05;100.00
13867;BME280;7003;46.982;15.248;2023-02-03T10:08:55;97741.59;;;9.17;100.00
13867;BME280;7003;46.982;15.248;2023-02-03T10:11:36;97730.03;;;9.35;100.00
13867;BME280;7003;46.982;15.248;2023-02-03T10:14:22;97733.41;;;9.27;100.00
13867;BME280;7003;46.982;15.248;2023-02-03T10:17:04;97724.44;;;9.37;100.00
13867;BME280;7003;46.982;15.248;2023-02-03T10:19:43;97732.09;;;9.69;100.00
13867;BME280;7003;46.982;15.248;2023-02-03T10:22:16;97718.31;;;9.89;100.00
13867;BME280;7003;46.982;15.248;2023-02-03T10:24:49;97729.28;;;9.65;100.00
13867;BME280;7003;46.982;15.248;2023-02-03T10:27:23;97697.91;;;9.76;100.00
13867;BME280;7003;46.982;15.248;2023-02-03T10:29:56;97699.47;;;9.46;100.00
13867;BME280;7003;46.982;15.248;2023-02-03T10:32:26;97706.94;;;9.13;100.00
13867;BME280;7003;46.982;15.248;2023-02-03T10:34:55;97695.66;;;8.72;100.00
13867;BME280;7003;46.982;15.248;2023-02-03T10:37:26;97681.09;;;8.20;100.00
13867;BME280;7003;46.982;15.248;2023-02-03T10:39:56;97668.66;;;8.92;100.00
13867;BME280;7003;46.982;15.248;2023-02-03T10:42:27;97657.50;;;9.26;100.00
13867;BME280;7003;46.982;15.248;2023-02-03T10:45:19;97652.97;;;10.54;100.00
13867;BME280;7003;46.982;15.248;2023-02-03T10:47:49;97627.63;;;10.99;100.00
13867;BME280;7003;46.982;15.248;2023-02-03T10:50:19;97619.22;;;9.49;100.00
13867;BME280;7003;46.982;15.248;2023-02-03T10:52:47;97606.97;;;10.79;100.00
13867;BME280;7003;46.982;15.248;2023-02-03T10:55:29;97595.97;;;11.06;100.00
13867;BME280;7003;46.982;15.248;2023-02-03T10:58:15;97602.81;;;11.25;100.00
13867;BME280;7003;46.982;15.248;2023-02-03T11:00:52;97593.31;;;10.98;100.00
13867;BME280;7003;46.982;15.248;2023-02-03T11:03:24;97603.81;;;10.94;100.00
13867;BME280;7003;46.982;15.248;2023-02-03T11:06:07;97599.94;;;10.74;100.00
13867;BME280;7003;46.982;15.248;2023-02-03T11:08:37;97600.72;;;10.58;100.00
13867;BME280;7003;46.982;15.248;2023-02-03T11:11:06;97601.50;;;10.58;100.00
13867;BME280;7003;46.982;15.248;2023-02-03T11:13:35;97602.59;;;10.57;100.00
13867;BME280;7003;46.982;15.248;2023-02-03T11:16:26;97593.34;;;10.72;100.00
13867;BME280;7003;46.982;15.248;2023-02-03T11:18:55;97581.16;;;10.62;100.00
13867;BME280;7003;46.982;15.248;2023-02-03T11:21:27;97584.75;;;10.58;100.00
13867;BME280;7003;46.982;15.248;2023-02-03T11:24:02;97581.94;;;10.54;100.00
13867;BME280;7003;46.982;15.248;2023-02-03T11:26:44;97571.44;;;10.23;100.00
13867;BME280;7003;46.982;15.248;2023-02-03T11:29:16;97567.66;;;9.98;100.00
13867;BME280;7003;46.982;15.248;2023-02-03T11:31:49;97549.03;;;9.90;100.00
13867;BME280;7003;46.982;15.248;2023-02-03T11:34:21;97566.66;;;9.77;100.00
13867;BME280;7003;46.982;15.248;2023-02-03T11:36:51;97556.38;;;9.93;100.00
13867;BME280;7003;46.982;15.248;2023-02-03T11:39:24;97545.94;;;10.05;100.00
13867;BME280;7003;46.982;15.248;2023-02-03T11:41:53;97547.81;;;10.30;100.00
13867;BME280;7003;46.982;15.248;2023-02-03T11:44:26;97540.44;;;10.79;100.00
13867;BME280;7003;46.982;15.248;2023-02-03T11:47:00;97543.09;;;10.88;100.00
13867;BME280;7003;46.982;15.248;2023-02-03T11:50:04;97531.91;;;11.11;100.00
13867;BME280;7003;46.982;15.248;2023-02-03T11:52:46;97520.91;;;11.60;100.00
13867;BME280;7003;46.982;15.248;2023-02-03T11:55:32;97515.13;;;11.49;100.00
13867;BME280;7003;46.982;15.248;2023-02-03T11:58:18;97500.16;;;11.06;100.00
13867;BME280;7003;46.982;15.248;2023-02-03T12:00:56;97499.03;;;11.07;100.00
13867;BME280;7003;46.982;15.248;2023-02-03T12:03:43;97486.06;;;11.35;100.00
13867;BME280;7003;46.982;15.248;2023-02-03T12:06:29;97481.38;;;10.22;100.00
13867;BME280;7003;46.982;15.248;2023-02-03T12:09:18;97481.63;;;9.51;100.00
13867;BME280;7003;46.982;15.248;2023-02-03T12:12:12;97464.63;;;10.38;100.00
13867;BME280;7003;46.982;15.248;2023-02-03T12:14:54;97469.16;;;10.12;100.00
13867;BME280;7003;46.982;15.248;2023-02-03T12:17:34;97462.34;;;9.37;100.00
13867;BME280;7003;46.982;15.248;2023-02-03T12:20:30;97462.75;;;9.79;100.00
13867;BME280;7003;46.982;15.248;2023-02-03T12:23:16;97449.38;;;9.27;100.00
13867;BME280;7003;46.982;15.248;2023-02-03T12:25:59;97421.63;;;9.76;100.00
13867;BME280;7003;46.982;15.248;2023-02-03T12:28:47;97443.38;;;9.04;100.00
13867;BME280;7003;46.982;15.248;2023-02-03T12:31:24;97421.53;;;9.07;100.00
13867;BME280;7003;46.982;15.248;2023-02-03T12:34:01;97433.16;;;8.80;100.00
13867;BME280;7003;46.982;15.248;2023-02-03T12:36:37;97419.06;;;9.19;100.00
13867;BME280;7003;46.982;15.248;2023-02-03T12:39:16;97412.72;;;8.81;100.00
13867;BME280;7003;46.982;15.248;2023-02-03T12:41:49;97410.16;;;9.24;100.00
13867;BME280;7003;46.982;15.248;2023-02-03T12:44:25;97400.63;;;9.06;100.00
13867;BME280;7003;46.982;15.248;2023-02-03T12:47:03;97397.09;;;9.88;100.00
13867;BME280;7003;46.982;15.248;2023-02-03T12:49:41;97395.06;;;10.02;100.00
13867;BME280;7003;46.982;15.248;2023-02-03T12:52:19;97379.91;;;9.77;100.00
13867;BME280;7003;46.982;15.248;2023-02-03T12:54:55;97357.41;;;9.40;100.00
13867;BME280;7003;46.982;15.248;2023-02-03T12:57:33;97355.81;;;8.56;100.00
13867;BME280;7003;46.982;15.248;2023-02-03T13:00:14;97339.91;;;9.04;100.00
13867;BME280;7003;46.982;15.248;2023-02-03T13:02:58;97336.50;;;9.21;100.00
13867;BME280;7003;46.982;15.248;2023-02-03T13:05:40;97325.56;;;9.65;100.00
13867;BME280;7003;46.982;15.248;2023-02-03T13:08:21;97304.22;;;10.00;100.00
13867;BME280;7003;46.982;15.248;2023-02-03T13:10:56;97310.25;;;9.62;100.00
13867;BME280;7003;46.982;15.248;2023-02-03T13:13:33;97307.63;;;9.37;100.00
13867;BME280;7003;46.982;15.248;2023-02-03T13:16:06;97282.91;;;9.62;100.00
13867;BME280;7003;46.982;15.248;2023-02-03T13:18:37;97300.19;;;9.94;100.00
13867;BME280;7003;46.982;15.248;2023-02-03T13:21:09;97268.41;;;9.25;100.00
13867;BME280;7003;46.982;15.248;2023-02-03T13:23:41;97278.69;;;9.01;100.00
13867;BME280;7003;46.982;15.248;2023-02-03T13:29:27;97265.88;;;9.54;100.00